Time;durP1;ratioP1;P1;durP2;ratioP2;P2;SDS_P1;SDS_P2;PMS_P1;PMS_P2;Temp;Humidity;BMP_temperature;BMP_pressure;BME280_temperature;BME280_humidity;BME280_pressure;Samples;Min_cycle;Max_cycle;Signal;HPM_P1;HPM_P2
2020/12/25 00:02:09;;;;;;;74.25;36.17;;;;;;;2.99;77.64;93176.41;4915691;29;20308;-72
2020/12/25 00:04:35;;;;;;;71.25;32.92;;;;;;;2.97;78.02;93178.91;4915942;29;20468;-72
2020/12/25 00:07:01;;;;;;;126.25;56.40;;;;;;;3.07;77.98;93194.47;4916990;29;20839;-72
2020/12/25 00:09:27;;;;;;;161.90;70.32;;;;;;;2.97;77.45;93196.03;4918356;29;20056;-72
2020/12/25 00:11:52;;;;;;;149.60;64.88;;;;;;;2.73;76.81;93204.09;4918215;29;20071;-72
2020/12/25 00:14:18;;;;;;;138.35;59.80;;;;;;;2.81;77.37;93202.34;4917013;29;20042;-72
2020/12/25 00:16:44;;;;;;;97.15;45.85;;;;;;;2.59;78.05;93202.44;4918225;29;20024;-73
2020/12/25 00:19:09;;;;;;;98.05;48.03;;;;;;;2.72;78.23;93202.63;4917045;29;20494;-73
2020/12/25 00:21:37;;;;;;;109.40;52.65;;;;;;;2.54;78.38;93205.94;4916911;29;20048;-73
2020/12/25 00:24:05;;;;;;;83.57;41.47;;;;;;;2.56;77.56;93189.06;4916450;29;20635;-73
2020/12/25 00:26:32;;;;;;;97.82;44.97;;;;;;;2.72;77.46;93199.16;4917188;29;20099;-72
2020/12/25 00:28:59;;;;;;;105.00;48.65;;;;;;;2.66;77.40;93196.47;4931458;29;20534;-72
2020/12/25 00:31:28;;;;;;;94.18;43.42;;;;;;;2.78;76.37;93202.59;4916642;29;20132;-72
2020/12/25 00:33:54;;;;;;;73.22;33.28;;;;;;;2.57;77.24;93185.88;4916623;29;20036;-72
2020/12/25 00:36:29;;;;;;;74.78;39.88;;;;;;;2.58;77.47;93206.41;4921339;29;20135;-71
2020/12/25 00:38:55;;;;;;;87.32;41.88;;;;;;;2.40;77.48;93207.00;4921415;29;20039;-71
2020/12/25 00:41:21;;;;;;;72.95;37.85;;;;;;;2.41;77.57;93196.81;4935479;29;20043;-71
2020/12/25 00:43:46;;;;;;;67.50;37.03;;;;;;;2.17;78.34;93187.28;4935277;29;20035;-71
2020/12/25 00:46:15;;;;;;;83.47;38.22;;;;;;;2.11;79.11;93196.69;4915932;29;20028;-71
2020/12/25 00:48:41;;;;;;;68.53;35.08;;;;;;;2.23;79.04;93198.16;4915958;29;20174;-72
2020/12/25 00:51:14;;;;;;;62.83;32.97;;;;;;;2.32;77.74;93202.59;4918241;29;20114;-71
2020/12/25 00:53:39;;;;;;;82.22;38.17;;;;;;;2.37;77.71;93210.72;4935223;29;20027;-72
2020/12/25 00:56:05;;;;;;;56.88;28.67;;;;;;;1.99;77.13;93208.88;4935367;29;20038;-71
2020/12/25 00:58:31;;;;;;;48.55;26.02;;;;;;;2.20;76.83;93213.50;4918191;29;20476;-71
2020/12/25 01:00:56;;;;;;;40.78;22.33;;;;;;;2.34;77.10;93211.72;4935145;29;20130;-71
2020/12/25 01:03:21;;;;;;;51.05;24.80;;;;;;;2.22;76.85;93188.50;4935291;29;20764;-72
2020/12/25 01:05:47;;;;;;;45.00;22.63;;;;;;;2.16;76.94;93179.59;4935042;29;20036;-71
2020/12/25 01:08:12;;;;;;;43.47;22.10;;;;;;;2.27;76.63;93185.00;4934924;29;20023;-71
2020/12/25 01:10:38;;;;;;;43.78;20.90;;;;;;;2.16;76.37;93195.94;4935251;29;20053;-71
2020/12/25 01:13:03;;;;;;;37.10;17.67;;;;;;;2.36;76.29;93200.34;4917667;29;20038;-71
2020/12/25 01:15:29;;;;;;;34.70;20.08;;;;;;;2.07;76.39;93193.50;4934877;29;20032;-71
2020/12/25 01:17:54;;;;;;;35.97;18.80;;;;;;;1.88;78.23;93201.47;4934856;29;20519;-71
2020/12/25 01:20:19;;;;;;;29.40;16.27;;;;;;;1.75;78.41;93205.97;4934821;29;20468;-71
2020/12/25 01:22:45;;;;;;;26.35;14.00;;;;;;;1.44;80.80;93196.09;4934843;29;20462;-72
2020/12/25 01:25:10;;;;;;;24.73;14.20;;;;;;;1.75;80.91;93200.50;4935795;29;20106;-72
2020/12/25 01:27:36;;;;;;;19.90;11.10;;;;;;;1.83;80.54;93187.88;4935754;29;20036;-72
2020/12/25 01:30:02;;;;;;;22.45;11.35;;;;;;;1.91;80.01;93178.69;4935582;29;20034;-72
2020/12/25 01:32:27;;;;;;;28.83;15.18;;;;;;;1.95;80.08;93181.88;4935835;29;20035;-72
2020/12/25 01:34:52;;;;;;;23.42;11.85;;;;;;;2.07;78.73;93177.16;4935743;29;20031;-72
2020/12/25 01:37:18;;;;;;;25.77;13.57;;;;;;;1.99;78.10;93174.19;4935750;29;20027;-72
2020/12/25 01:39:43;;;;;;;21.17;13.35;;;;;;;1.88;78.89;93160.66;4935639;29;20043;-72
2020/12/25 01:42:09;;;;;;;30.08;16.25;;;;;;;2.14;78.47;93166.47;4935508;29;20024;-72
2020/12/25 01:44:34;;;;;;;32.38;16.70;;;;;;;2.13;77.68;93166.97;4934308;29;20464;-72
2020/12/25 01:47:01;;;;;;;32.17;17.45;;;;;;;2.17;78.34;93173.66;4935447;29;20056;-72
2020/12/25 01:49:26;;;;;;;55.85;27.88;;;;;;;2.20;78.10;93171.91;4934691;29;20023;-72
2020/12/25 01:51:52;;;;;;;61.95;29.92;;;;;;;2.19;76.91;93143.19;4918360;29;20532;-72
2020/12/25 01:54:17;;;;;;;44.88;24.23;;;;;;;1.99;77.06;93149.69;4935470;29;20126;-73
2020/12/25 01:56:43;;;;;;;42.30;21.70;;;;;;;1.99;77.43;93144.25;4918226;29;20191;-72
2020/12/25 01:59:08;;;;;;;32.55;17.70;;;;;;;1.78;77.75;93126.03;4918378;29;20039;-71
2020/12/25 02:01:34;;;;;;;34.53;18.65;;;;;;;1.82;78.11;93140.84;4935310;29;20034;-72
2020/12/25 02:04:00;;;;;;;47.90;24.33;;;;;;;1.94;78.56;93155.19;4918234;29;20032;-72
2020/12/25 02:06:26;;;;;;;59.38;29.02;;;;;;;2.00;78.61;93164.81;4935123;29;20118;-72
2020/12/25 02:08:51;;;;;;;62.45;28.55;;;;;;;1.94;77.96;93138.84;4935107;29;20127;-72
2020/12/25 02:11:18;;;;;;;62.00;29.45;;;;;;;1.87;77.74;93117.56;4935014;29;20035;-72
2020/12/25 02:13:44;;;;;;;54.25;28.70;;;;;;;1.91;78.14;93150.72;4935063;29;20103;-72
2020/12/25 02:16:09;;;;;;;55.50;27.48;;;;;;;1.89;76.97;93125.97;4917984;29;20107;-72
2020/12/25 02:18:38;;;;;;;50.70;25.73;;;;;;;1.84;78.03;93113.88;4917478;29;20114;-72
2020/12/25 02:21:04;;;;;;;30.58;16.77;;;;;;;1.72;78.57;93138.91;4934996;29;20027;-72
2020/12/25 02:23:30;;;;;;;31.00;15.55;;;;;;;1.72;78.21;93134.22;4934747;29;20421;-72
2020/12/25 02:25:55;;;;;;;26.63;14.55;;;;;;;1.55;79.04;93122.63;4934778;29;20036;-71
2020/12/25 02:28:21;;;;;;;27.67;14.82;;;;;;;1.49;79.23;93125.34;4934788;29;20027;-72
2020/12/25 02:30:46;;;;;;;33.60;15.77;;;;;;;1.73;79.30;93137.69;4934662;29;20034;-72
2020/12/25 02:33:11;;;;;;;43.35;20.65;;;;;;;1.81;78.90;93133.19;4934723;29;20024;-72
2020/12/25 02:35:37;;;;;;;46.60;25.35;;;;;;;1.96;78.68;93137.09;4934735;29;20034;-72
2020/12/25 02:38:02;;;;;;;39.85;19.95;;;;;;;1.75;78.71;93143.38;4934651;29;20038;-72
2020/12/25 02:40:28;;;;;;;36.10;19.30;;;;;;;1.54;79.51;93140.94;4934606;29;20094;-72
2020/12/25 02:42:53;;;;;;;28.52;15.55;;;;;;;1.19;80.27;93110.81;4934572;29;20032;-71
2020/12/25 02:45:19;;;;;;;24.70;13.88;;;;;;;1.31;80.64;93125.16;4934479;29;20062;-71
2020/12/25 02:47:44;;;;;;;22.52;10.77;;;;;;;1.43;79.37;93126.59;4934339;29;20047;-72
2020/12/25 02:50:10;;;;;;;22.52;11.65;;;;;;;1.51;79.66;93128.34;4917414;29;20521;-72
2020/12/25 02:52:35;;;;;;;23.23;13.25;;;;;;;1.79;78.56;93127.50;4934607;29;20019;-72
2020/12/25 02:55:00;;;;;;;33.95;17.40;;;;;;;1.84;78.68;93124.03;4934514;29;20560;-72
2020/12/25 02:57:26;;;;;;;35.65;19.17;;;;;;;1.72;78.62;93111.69;4917588;29;20023;-72
2020/12/25 02:59:51;;;;;;;31.20;15.73;;;;;;;1.81;78.58;93119.59;4934463;29;20420;-72
2020/12/25 03:02:17;;;;;;;34.75;16.00;;;;;;;2.00;77.61;93123.22;4934246;29;20027;-72
2020/12/25 03:04:43;;;;;;;31.00;14.10;;;;;;;1.93;77.03;93115.56;4934447;29;20032;-71
2020/12/25 03:07:10;;;;;;;25.63;14.35;;;;;;;1.98;78.08;93129.19;4917181;29;20035;-72
2020/12/25 03:09:35;;;;;;;29.45;15.80;;;;;;;1.89;77.71;93123.25;4934326;29;20063;-71
2020/12/25 03:12:01;;;;;;;37.85;18.90;;;;;;;1.64;78.19;93122.38;4917350;29;20051;-72
2020/12/25 03:14:26;;;;;;;43.25;20.30;;;;;;;1.75;77.48;93124.31;4934159;29;20129;-71
2020/12/25 03:16:52;;;;;;;45.83;23.23;;;;;;;1.53;78.73;93134.03;4934197;29;20048;-71
2020/12/25 03:19:17;;;;;;;49.65;22.38;;;;;;;1.26;79.78;93136.75;4934249;29;20032;-71
2020/12/25 03:21:43;;;;;;;56.33;25.60;;;;;;;1.17;80.26;93132.31;4933987;29;20425;-71
2020/12/25 03:24:09;;;;;;;42.63;20.58;;;;;;;1.04;80.91;93126.66;4934234;29;20070;-70
2020/12/25 03:26:35;;;;;;;47.25;23.15;;;;;;;1.24;81.37;93126.41;4917145;29;20051;-70
2020/12/25 03:29:00;;;;;;;37.45;18.58;;;;;;;1.06;81.71;93110.59;4934082;29;20039;-71
2020/12/25 03:31:26;;;;;;;41.60;19.00;;;;;;;1.37;81.11;93129.34;4937806;29;20047;-72
2020/12/25 03:33:51;;;;;;;48.70;22.02;;;;;;;1.41;80.60;93105.34;4920971;29;20036;-72
2020/12/25 03:36:17;;;;;;;42.35;19.00;;;;;;;1.63;80.43;93133.72;4937841;29;20031;-72
2020/12/25 03:38:42;;;;;;;56.17;22.77;;;;;;;1.52;80.17;93124.38;4937765;29;20146;-72
2020/12/25 03:41:07;;;;;;;49.25;21.77;;;;;;;1.56;80.30;93115.22;4920751;29;20122;-72
2020/12/25 03:43:33;;;;;;;46.97;23.05;;;;;;;1.59;79.70;93117.66;4937698;29;20034;-72
2020/12/25 03:45:59;;;;;;;50.50;24.58;;;;;;;1.34;79.58;93086.81;4934082;29;20075;-72
2020/12/25 03:48:25;;;;;;;42.70;21.52;;;;;;;1.62;80.11;93110.50;4926371;29;20123;-72
2020/12/25 03:50:50;;;;;;;47.35;21.85;;;;;;;1.67;79.94;93107.75;4946426;29;20115;-72
2020/12/25 03:53:16;;;;;;;52.20;22.58;;;;;;;1.66;79.55;93100.09;4933436;29;20405;-72
2020/12/25 03:55:41;;;;;;;51.80;24.48;;;;;;;1.72;79.10;93101.56;4923763;29;20117;-72
2020/12/25 03:58:07;;;;;;;50.20;23.30;;;;;;;1.68;78.55;93090.19;4956579;29;20035;-72
2020/12/25 04:00:32;;;;;;;48.50;22.80;;;;;;;1.65;78.47;93093.91;4956628;29;20031;-72
2020/12/25 04:02:57;;;;;;;41.45;21.02;;;;;;;1.76;78.55;93087.69;4956533;29;20034;-72
2020/12/25 04:05:23;;;;;;;42.95;20.92;;;;;;;1.67;78.31;93085.25;4955160;29;20027;-72
2020/12/25 04:07:48;;;;;;;40.17;21.60;;;;;;;1.40;79.30;93094.97;4956507;29;20118;-72
2020/12/25 04:10:14;;;;;;;46.90;23.15;;;;;;;1.11;80.12;93079.19;4956407;29;20039;-72
2020/12/25 04:12:39;;;;;;;40.38;18.33;;;;;;;1.04;80.37;93080.44;4956262;29;20419;-72
2020/12/25 04:15:05;;;;;;;31.52;15.30;;;;;;;0.95;80.44;93080.72;4939141;29;20082;-72
2020/12/25 04:17:30;;;;;;;29.73;13.85;;;;;;;0.91;80.30;93063.91;4956274;29;20023;-72
2020/12/25 04:19:56;;;;;;;28.50;13.93;;;;;;;1.15;80.17;93091.31;4956280;29;20027;-72
2020/12/25 04:22:21;;;;;;;35.40;16.85;;;;;;;1.20;79.41;93087.09;4956111;29;20556;-72
2020/12/25 04:24:47;;;;;;;37.72;16.33;;;;;;;1.07;79.55;93082.19;4956286;29;20031;-72
2020/12/25 04:27:12;;;;;;;39.70;17.15;;;;;;;1.04;80.50;93085.16;4956212;29;20028;-71
2020/12/25 04:29:37;;;;;;;34.25;18.25;;;;;;;1.23;80.54;93091.56;4956083;29;20086;-72
2020/12/25 04:32:03;;;;;;;40.17;18.10;;;;;;;1.26;79.73;93088.56;4956049;29;20085;-72
2020/12/25 04:34:29;;;;;;;36.00;18.50;;;;;;;1.31;79.43;93076.19;4956095;29;20038;-72
2020/12/25 04:36:54;;;;;;;38.05;18.65;;;;;;;1.26;79.08;93085.84;4938981;29;20035;-71
2020/12/25 04:39:20;;;;;;;36.70;17.67;;;;;;;1.06;79.37;93061.66;4956036;29;20042;-72
2020/12/25 04:41:45;;;;;;;38.88;20.30;;;;;;;1.17;79.24;93091.53;4955452;28;20031;-71
2020/12/25 04:44:10;;;;;;;39.30;20.58;;;;;;;1.27;79.58;93087.34;4955737;29;20059;-71
2020/12/25 04:46:36;;;;;;;45.78;19.95;;;;;;;1.30;78.34;93091.06;4951661;29;20062;-71
2020/12/25 04:49:02;;;;;;;39.13;19.90;;;;;;;1.28;78.87;93069.03;4936565;29;20032;-71
2020/12/25 04:51:27;;;;;;;46.65;23.17;;;;;;;1.33;79.32;93065.56;4936730;29;20027;-71
2020/12/25 04:53:54;;;;;;;40.47;21.60;;;;;;;1.28;79.18;93077.94;4936544;29;20040;-70
2020/12/25 04:56:20;;;;;;;60.25;27.23;;;;;;;1.28;79.84;93088.81;4936456;29;20036;-72
2020/12/25 04:58:47;;;;;;;59.65;27.73;;;;;;;1.33;79.48;93098.94;4936435;29;20116;-71
2020/12/25 05:01:12;;;;;;;105.28;46.28;;;;;;;1.33;78.81;93088.06;4936438;29;20413;-71
2020/12/25 05:03:39;;;;;;;74.88;28.48;;;;;;;1.40;79.42;93094.97;4919356;29;20031;-71
2020/12/25 05:06:09;;;;;;;50.63;22.48;;;;;;;1.52;79.69;93096.41;4936335;29;20041;-71
2020/12/25 05:08:42;;;;;;;64.32;27.20;;;;;;;1.29;79.79;93092.28;4936203;29;20039;-70
2020/12/25 05:11:10;;;;;;;51.30;23.48;;;;;;;1.08;79.82;93082.91;4919334;29;20070;-70
2020/12/25 05:13:42;;;;;;;76.75;34.10;;;;;;;1.22;80.62;93095.50;4936208;29;20051;-70
2020/12/25 05:16:09;;;;;;;63.75;27.75;;;;;;;1.18;80.44;93103.16;4919166;29;20102;-70
2020/12/25 05:18:34;;;;;;;78.60;35.00;;;;;;;1.35;80.36;93101.91;4918964;29;20035;-70
2020/12/25 05:21:08;;;;;;;62.65;28.98;;;;;;;1.45;79.92;93096.94;4919001;29;20034;-70
2020/12/25 05:23:34;;;;;;;86.03;34.33;;;;;;;1.42;79.86;93104.13;4935882;29;20035;-70
2020/12/25 05:26:00;;;;;;;59.47;28.15;;;;;;;1.50;78.93;93107.06;4918825;29;20035;-70
2020/12/25 05:28:29;;;;;;;74.80;33.25;;;;;;;1.46;79.38;93092.97;4918875;29;20035;-70
2020/12/25 05:30:58;;;;;;;;;;;;;;;1.50;79.48;93112.50;4919312;29;20136;-70
2020/12/25 05:33:24;;;;;;;76.47;29.90;;;;;;;1.58;78.99;93116.22;4935864;29;19950;-70
2020/12/25 05:35:53;;;;;;;93.75;38.63;;;;;;;1.58;78.33;93124.38;4935827;29;20118;-70
2020/12/25 05:38:18;;;;;;;68.55;32.38;;;;;;;1.00;78.88;93120.72;4918736;29;20027;-70
2020/12/25 05:40:44;;;;;;;52.85;28.92;;;;;;;0.93;79.36;93118.53;4935848;29;20039;-70
2020/12/25 05:43:13;;;;;;;56.20;25.13;;;;;;;0.75;79.83;93121.72;4935512;29;20063;-70
2020/12/25 05:45:41;;;;;;;;;;;;;;;0.92;80.04;93124.44;4919222;29;20436;-71
2020/12/25 05:48:08;;;;;;;62.55;28.70;;;;;;;1.10;80.18;93132.84;4918345;29;20405;-71
2020/12/25 05:50:34;;;;;;;56.22;26.75;;;;;;;1.23;80.19;93129.63;4918599;29;20096;-71
2020/12/25 05:53:00;;;;;;;72.43;30.35;;;;;;;1.18;79.09;93117.50;4934642;29;20032;-73
2020/12/25 05:55:26;;;;;;;96.63;41.88;;;;;;;1.23;78.50;93118.75;4935415;29;20040;-71
2020/12/25 05:57:52;;;;;;;75.28;36.10;;;;;;;1.30;78.41;93131.84;4935403;29;20521;-71
2020/12/25 06:00:23;;;;;;;97.95;44.20;;;;;;;1.30;78.43;93132.56;4918439;29;20031;-71
2020/12/25 06:02:50;;;;;;;77.03;37.45;;;;;;;1.16;78.67;93143.72;4935181;29;20035;-71
2020/12/25 06:05:17;;;;;;;88.93;40.80;;;;;;;0.96;79.37;93139.25;4918211;29;20034;-71
2020/12/25 06:07:50;;;;;;;86.90;40.65;;;;;;;0.96;79.62;93114.06;4935040;29;20027;-71
2020/12/25 06:10:19;;;;;;;83.30;41.55;;;;;;;1.25;78.80;93144.22;4935222;29;20032;-71
2020/12/25 06:12:45;;;;;;;77.28;37.42;;;;;;;1.16;78.68;93141.75;4914745;29;20028;-71
2020/12/25 06:15:16;;;;;;;103.43;46.47;;;;;;;1.23;79.16;93137.78;4916119;29;20028;-71
2020/12/25 06:18:01;;;;;;;104.53;49.55;;;;;;;1.35;78.12;93120.94;4916013;29;20028;-72
2020/12/25 06:20:31;;;;;;;85.30;43.00;;;;;;;1.39;78.19;93128.84;4916172;29;20031;-71
2020/12/25 06:22:56;;;;;;;126.13;56.42;;;;;;;1.26;78.57;93110.31;4915787;29;20514;-71
2020/12/25 06:25:24;;;;;;;141.32;60.17;;;;;;;1.59;77.75;93134.00;4899127;29;20038;-71
2020/12/25 06:27:56;;;;;;;127.25;60.28;;;;;;;1.62;77.63;93134.97;4915997;29;20618;-71
2020/12/25 06:30:25;;;;;;;139.68;59.17;;;;;;;1.64;76.88;93129.78;4899053;29;20038;-71
2020/12/25 06:32:55;;;;;;;115.13;52.50;;;;;;;1.71;76.79;93165.38;4898960;29;20032;-71
2020/12/25 06:35:31;;;;;;;108.93;45.53;;;;;;;1.58;77.52;93167.91;4898844;29;20036;-71
2020/12/25 06:37:56;;;;;;;118.07;54.58;;;;;;;1.18;79.18;93139.25;4915703;29;20099;-71
2020/12/25 06:40:24;;;;;;;110.10;48.13;;;;;;;1.07;79.79;93147.41;4915785;29;20036;-71
2020/12/25 06:42:53;;;;;;;79.32;30.00;;;;;;;1.04;81.27;93164.72;4915682;29;20028;-71
2020/12/25 06:45:21;;;;;;;64.22;31.73;;;;;;;0.88;81.92;93176.34;4915696;29;20066;-71
2020/12/25 06:47:47;;;;;;;52.72;23.23;;;;;;;0.80;82.72;93163.72;4915559;29;20080;-72
2020/12/25 06:50:14;;;;;;;47.38;22.17;;;;;;;0.95;83.00;93167.69;4915515;29;20035;-71
2020/12/25 06:52:55;;;;;;;53.78;24.85;;;;;;;1.29;82.67;93168.41;4915834;29;20036;-72
2020/12/25 06:55:21;;;;;;;50.15;24.75;;;;;;;1.54;81.76;93176.28;4915589;29;20110;-71
2020/12/25 06:57:47;;;;;;;52.63;26.02;;;;;;;1.84;81.48;93176.47;4915419;29;20032;-72
2020/12/25 07:00:12;;;;;;;34.28;18.48;;;;;;;1.93;80.08;93148.97;4898443;29;20096;-72
2020/12/25 07:02:41;;;;;;;40.33;19.83;;;;;;;2.28;79.34;93167.41;4915257;29;20067;-71
2020/12/25 07:05:07;;;;;;;35.60;19.02;;;;;;;2.22;78.35;93151.13;4898471;29;20032;-72
2020/12/25 07:07:33;;;;;;;58.75;30.50;;;;;;;2.38;79.21;93162.44;4915362;29;20078;-72
2020/12/25 07:10:08;;;;;;;91.38;43.50;;;;;;;2.57;78.12;93150.44;4915885;29;20048;-72
2020/12/25 07:12:34;;;;;;;125.45;57.63;;;;;;;2.71;77.46;93162.97;4915347;29;20025;-72
2020/12/25 07:15:00;;;;;;;101.15;43.45;;;;;;;2.82;76.64;93159.44;4915237;29;20042;-72
2020/12/25 07:17:26;;;;;;;86.57;39.35;;;;;;;2.79;76.33;93165.91;4915224;29;20028;-71
2020/12/25 07:19:51;;;;;;;97.13;43.78;;;;;;;2.83;75.66;93172.59;4915287;29;20510;-72
2020/12/25 07:22:17;;;;;;;134.48;58.15;;;;;;;2.85;75.61;93161.91;4895550;29;20035;-72
2020/12/25 07:24:43;;;;;;;105.40;44.42;;;;;;;3.12;75.17;93170.41;4878710;29;20063;-71
2020/12/25 07:27:09;;;;;;;169.32;72.00;;;;;;;3.03;74.17;93172.19;4895565;29;20064;-71
2020/12/25 07:29:35;;;;;;;114.47;53.28;;;;;;;3.15;74.69;93181.03;4878897;29;20463;-71
2020/12/25 07:32:01;;;;;;;122.65;55.30;;;;;;;3.22;74.57;93177.00;4895688;29;20032;-71
2020/12/25 07:34:27;;;;;;;98.38;49.90;;;;;;;3.26;74.88;93177.47;4863828;29;20131;-71
2020/12/25 07:36:54;;;;;;;77.35;42.25;;;;;;;3.33;74.33;93169.50;4914290;29;20024;-72
2020/12/25 07:39:24;;;;;;;90.93;44.40;;;;;;;3.44;74.49;93163.19;4914007;29;20035;-72
2020/12/25 07:41:50;;;;;;;98.03;45.60;;;;;;;3.26;75.09;93158.38;4911427;29;20163;-72
2020/12/25 07:44:17;;;;;;;96.45;46.90;;;;;;;2.93;75.96;93151.94;4914189;29;20111;-72
2020/12/25 07:46:43;;;;;;;97.05;49.45;;;;;;;2.90;77.45;93168.56;4901541;29;20062;-71
2020/12/25 07:49:09;;;;;;;100.72;51.70;;;;;;;2.93;78.04;93143.75;4915884;29;20028;-71
2020/12/25 07:51:36;;;;;;;95.95;48.65;;;;;;;3.28;77.39;93151.16;4933263;29;20038;-71
2020/12/25 07:54:03;;;;;;;92.10;47.28;;;;;;;3.75;76.66;93163.38;4916357;29;20032;-71
2020/12/25 07:56:31;;;;;;;95.80;50.85;;;;;;;4.11;75.19;93174.19;4915927;29;20123;-71
2020/12/25 07:58:57;;;;;;;141.18;65.32;;;;;;;4.42;74.24;93179.78;4933358;29;20024;-71
2020/12/25 08:01:25;;;;;;;98.07;51.90;;;;;;;4.61;72.96;93164.13;4933256;29;20182;-71
2020/12/25 08:03:51;;;;;;;74.82;41.55;;;;;;;4.72;72.95;93160.50;4933082;29;20561;-71
2020/12/25 08:06:20;;;;;;;77.65;41.75;;;;;;;4.89;72.72;93161.03;4933263;29;20164;-71
2020/12/25 08:08:53;;;;;;;91.57;47.67;;;;;;;5.00;72.93;93151.94;4918902;29;20050;-72
2020/12/25 08:11:19;;;;;;;113.97;57.58;;;;;;;4.86;72.84;93153.13;4932975;29;20039;-72
2020/12/25 08:13:48;;;;;;;99.75;50.83;;;;;;;4.96;72.81;93178.84;4916037;29;20028;-71
2020/12/25 08:16:15;;;;;;;54.03;29.13;;;;;;;4.86;71.88;93169.53;4916579;29;20094;-72
2020/12/25 08:18:40;;;;;;;44.22;26.58;;;;;;;4.49;72.65;93157.34;4919750;29;20036;-71
2020/12/25 08:21:05;;;;;;;45.95;25.15;;;;;;;4.60;73.16;93181.06;4919579;29;20468;-71
2020/12/25 08:23:35;;;;;;;40.42;22.73;;;;;;;4.52;73.92;93166.50;4937333;29;20036;-71
2020/12/25 08:26:01;;;;;;;40.90;23.73;;;;;;;4.88;73.49;93167.75;4919572;29;20036;-71
2020/12/25 08:28:32;;;;;;;39.90;22.52;;;;;;;5.18;72.85;93170.28;4919330;29;20519;-71
2020/12/25 08:30:58;;;;;;;31.23;19.90;;;;;;;5.39;71.92;93168.50;4936533;29;20035;-71
2020/12/25 08:33:27;;;;;;;33.17;19.98;;;;;;;5.80;71.18;93181.75;4919321;29;20031;-72
2020/12/25 08:35:53;;;;;;;24.48;15.20;;;;;;;6.28;69.74;93166.97;4936378;29;20576;-72
2020/12/25 08:38:20;;;;;;;30.90;18.30;;;;;;;6.84;67.97;93157.06;4936165;29;20042;-71
2020/12/25 08:40:47;;;;;;;89.28;45.10;;;;;;;6.66;68.79;93146.25;4919182;29;20428;-72
2020/12/25 08:43:17;;;;;;;33.03;19.15;;;;;;;7.22;67.75;93154.72;4937506;29;20034;-72
2020/12/25 08:45:58;;;;;;;21.90;15.55;;;;;;;7.32;66.90;93150.25;4936223;29;20027;-72
2020/12/25 08:48:23;;;;;;;27.73;17.73;;;;;;;7.08;67.85;93156.03;4917501;29;20048;-71
2020/12/25 08:50:49;;;;;;;21.63;13.18;;;;;;;6.33;68.91;93135.94;4918291;29;20576;-72
2020/12/25 08:53:20;;;;;;;29.48;18.73;;;;;;;6.43;70.46;93156.91;4916869;29;20030;-70
2020/12/25 08:55:50;;;;;;;21.33;13.00;;;;;;;6.31;71.18;93138.47;4896777;29;20437;-70
2020/12/25 08:58:17;;;;;;;22.33;15.20;;;;;;;5.74;73.54;93137.28;4924491;29;20564;-70
2020/12/25 09:00:42;;;;;;;33.00;20.17;;;;;;;6.10;73.23;93135.66;4916986;29;20038;-70
2020/12/25 09:03:08;;;;;;;22.65;12.82;;;;;;;6.37;72.40;93139.84;4915817;29;20032;-70
2020/12/25 09:05:33;;;;;;;15.75;11.35;;;;;;;6.44;71.97;93135.72;4916442;29;20047;-70
2020/12/25 09:07:59;;;;;;;18.95;11.50;;;;;;;6.56;72.08;93126.72;4916347;29;20130;-71
2020/12/25 09:10:24;;;;;;;69.30;30.02;;;;;;;6.65;72.10;93112.56;4915117;29;20091;-71
2020/12/25 09:12:50;;;;;;;46.65;21.85;;;;;;;6.83;71.42;93103.47;4923719;29;20035;-71
2020/12/25 09:15:16;;;;;;;94.57;39.78;;;;;;;6.84;71.23;93082.25;4915813;29;20478;-70
2020/12/25 09:17:41;;;;;;;97.85;42.47;;;;;;;7.01;70.92;93095.59;4934784;29;20031;-71
2020/12/25 09:20:06;;;;;;;70.38;34.80;;;;;;;7.04;71.41;93105.50;4935515;29;20032;-71
2020/12/25 09:22:32;;;;;;;55.70;28.10;;;;;;;7.31;70.06;93099.34;4931037;29;20421;-71
2020/12/25 09:24:57;;;;;;;46.03;23.42;;;;;;;7.38;69.98;93097.94;4916026;29;20028;-70
2020/12/25 09:27:23;;;;;;;41.45;21.60;;;;;;;6.98;71.50;93080.91;4915695;29;20528;-70
2020/12/25 09:29:48;;;;;;;47.45;25.55;;;;;;;7.19;71.27;93087.16;4915058;29;20032;-71
2020/12/25 09:32:14;;;;;;;69.57;37.35;;;;;;;7.27;71.18;93098.97;4914655;29;20032;-73
2020/12/25 09:34:39;;;;;;;58.67;34.55;;;;;;;7.28;71.50;93089.44;4909713;29;20040;-73
2020/12/25 09:37:05;;;;;;;62.13;34.25;;;;;;;7.43;71.08;93086.06;4914949;29;20035;-74
2020/12/25 09:39:30;;;;;;;59.72;33.10;;;;;;;7.04;72.77;93083.53;4916035;29;20091;-74
2020/12/25 09:41:56;;;;;;;58.22;31.73;;;;;;;7.33;72.36;93074.09;4929019;29;20024;-74
2020/12/25 09:44:21;;;;;;;59.78;31.48;;;;;;;7.61;72.10;93088.63;4917973;29;20115;-72
2020/12/25 09:46:47;;;;;;;43.75;28.73;;;;;;;7.83;71.31;93086.56;4934739;29;20052;-72
2020/12/25 09:49:12;;;;;;;44.80;27.02;;;;;;;7.92;70.99;93075.81;4917978;29;20036;-74
2020/12/25 09:51:37;;;;;;;42.65;25.23;;;;;;;7.95;70.51;93054.78;4926190;29;20070;-73
2020/12/25 09:54:03;;;;;;;41.47;25.73;;;;;;;8.12;70.40;93050.25;4898572;29;20096;-71
2020/12/25 09:56:28;;;;;;;39.90;24.65;;;;;;;8.31;69.67;93034.25;4883098;29;20024;-74
2020/12/25 09:58:54;;;;;;;37.80;22.88;;;;;;;8.49;68.89;93037.25;4915764;29;20056;-72
2020/12/25 10:01:19;;;;;;;45.50;27.30;;;;;;;8.62;68.82;93051.59;4915642;29;20027;-76
2020/12/25 10:03:45;;;;;;;48.45;28.27;;;;;;;8.72;68.67;93049.81;4915573;29;20064;-74
2020/12/25 10:06:11;;;;;;;45.92;27.45;;;;;;;8.78;68.43;93033.84;4898650;29;20040;-73
2020/12/25 10:08:36;;;;;;;43.55;25.77;;;;;;;8.89;67.61;93021.75;4915687;29;20103;-71
2020/12/25 10:11:02;;;;;;;48.95;27.80;;;;;;;9.08;68.29;93033.16;4930330;29;20043;-72
2020/12/25 10:13:28;;;;;;;49.63;29.90;;;;;;;9.14;68.34;93022.69;4937195;29;20024;-72
2020/12/25 10:15:53;;;;;;;47.90;28.00;;;;;;;9.23;67.87;93015.91;4932851;29;20035;-71
2020/12/25 10:18:19;;;;;;;68.70;36.78;;;;;;;9.36;67.63;93012.97;4917465;29;20031;-71
2020/12/25 10:20:45;;;;;;;78.72;43.03;;;;;;;9.56;66.92;93012.06;4913127;29;20175;-71
2020/12/25 10:23:11;;;;;;;61.42;36.15;;;;;;;9.69;66.84;93020.88;4915406;29;20111;-71
2020/12/25 10:25:36;;;;;;;51.72;30.77;;;;;;;10.04;65.98;93023.91;4913940;29;20032;-72
2020/12/25 10:28:01;;;;;;;50.17;30.88;;;;;;;10.24;65.54;93020.22;4915351;29;20032;-72
2020/12/25 10:30:27;;;;;;;62.55;34.28;;;;;;;10.43;64.06;93015.75;4923442;29;20042;-72
2020/12/25 10:32:52;;;;;;;38.20;23.98;;;;;;;10.59;63.68;93017.13;4934205;29;20110;-72
2020/12/25 10:35:19;;;;;;;39.83;25.15;;;;;;;10.80;63.57;93008.56;4922488;29;20051;-71
2020/12/25 10:37:44;;;;;;;44.78;26.63;;;;;;;10.85;63.14;92990.31;4914970;29;20102;-71
2020/12/25 10:40:10;;;;;;;48.22;28.17;;;;;;;11.11;63.53;93000.84;4914859;29;20038;-73
2020/12/25 10:42:35;;;;;;;48.40;30.63;;;;;;;11.26;63.68;93000.72;4915194;29;20036;-76
2020/12/25 10:45:01;;;;;;;56.55;34.28;;;;;;;11.39;62.28;92986.63;4899557;29;20131;-72
2020/12/25 10:47:26;;;;;;;44.40;27.67;;;;;;;10.96;63.45;92989.88;4913955;29;20059;-70
2020/12/25 10:49:52;;;;;;;38.05;23.35;;;;;;;10.44;65.17;92964.00;4892786;29;20032;-70
2020/12/25 10:52:17;;;;;;;30.63;20.77;;;;;;;10.90;64.46;92983.81;4920453;29;20023;-72
2020/12/25 10:54:43;;;;;;;31.67;17.92;;;;;;;10.79;65.43;92978.72;4919929;29;20020;-71
2020/12/25 10:57:08;;;;;;;30.52;16.45;;;;;;;10.86;64.70;92953.09;4918103;29;20474;-72
2020/12/25 10:59:34;;;;;;;26.38;16.13;;;;;;;11.37;63.75;92959.53;4918863;29;20028;-71
2020/12/25 11:01:59;;;;;;;23.92;16.45;;;;;;;11.88;63.00;92958.91;4914767;29;20028;-71
2020/12/25 11:04:25;;;;;;;21.83;14.13;;;;;;;12.14;60.95;92930.56;4914108;29;20020;-71
2020/12/25 11:06:50;;;;;;;19.45;12.70;;;;;;;12.75;59.93;92961.00;4914734;29;20028;-70
2020/12/25 11:09:16;;;;;;;19.45;11.13;;;;;;;13.24;58.06;92959.94;4912756;29;20020;-71
2020/12/25 11:11:41;;;;;;;22.65;10.70;;;;;;;13.71;56.62;92960.66;4899933;29;20020;-71
2020/12/25 11:14:08;;;;;;;20.63;14.10;;;;;;;14.20;53.96;92949.03;4891394;29;20103;-72
2020/12/25 11:16:35;;;;;;;20.58;12.52;;;;;;;14.60;53.44;92951.94;4907719;29;20035;-71
2020/12/25 11:19:01;;;;;;;27.33;16.50;;;;;;;14.71;53.10;92948.56;4896939;29;20024;-71
2020/12/25 11:21:31;;;;;;;32.47;20.08;;;;;;;14.91;52.40;92949.97;4910704;29;20506;-71